createdAt,value
2019-05-13T00:01:55.263Z,5.40
2019-05-13T00:04:25.082Z,5.40
2019-05-13T00:06:57.820Z,5.40
2019-05-13T00:09:27.119Z,5.40
2019-05-13T00:11:56.970Z,5.30
2019-05-13T00:14:27.117Z,5.30
2019-05-13T00:16:57.227Z,5.20
2019-05-13T00:19:27.436Z,5.20
2019-05-13T00:21:57.567Z,5.20
2019-05-13T00:24:27.740Z,5.30
2019-05-13T00:26:57.661Z,5.30
2019-05-13T00:29:27.907Z,5.30
2019-05-13T00:31:58.104Z,5.30
2019-05-13T00:34:28.223Z,5.30
2019-05-13T00:37:08.861Z,5.30
2019-05-13T00:39:29.942Z,5.20
2019-05-13T00:42:00.044Z,5.20
2019-05-13T00:44:29.934Z,5.10
2019-05-13T00:46:59.797Z,5.10
2019-05-13T00:49:29.944Z,5.10
2019-05-13T00:52:00.126Z,5.20
2019-05-13T00:54:30.219Z,5.10
2019-05-13T00:57:04.435Z,5.10
2019-05-13T00:59:54.152Z,5.10
2019-05-13T01:02:24.387Z,5.10
2019-05-13T01:04:54.317Z,5.00
2019-05-13T01:07:28.478Z,5.10
2019-05-13T01:09:56.182Z,5.10
2019-05-13T01:12:26.329Z,5.10
2019-05-13T01:14:56.196Z,5.00
2019-05-13T01:17:26.438Z,5.00
2019-05-13T01:19:56.659Z,4.90
2019-05-13T01:22:26.555Z,4.80
2019-05-13T01:24:56.387Z,4.80
2019-05-13T01:27:26.546Z,4.90
2019-05-13T01:29:56.750Z,4.90
2019-05-13T01:32:26.880Z,4.90
2019-05-13T01:34:57.095Z,4.90
2019-05-13T01:37:39.106Z,4.90
2019-05-13T01:40:00.011Z,4.90
2019-05-13T01:42:29.915Z,4.90
2019-05-13T01:44:59.923Z,4.90
2019-05-13T01:47:30.056Z,5.00
2019-05-13T01:50:00.012Z,4.90
2019-05-13T01:52:31.012Z,4.90
2019-05-13T01:55:03.833Z,4.90
2019-05-13T01:57:34.291Z,5.00
2019-05-13T02:00:06.269Z,4.90
2019-05-13T02:02:36.458Z,4.90
2019-05-13T02:05:06.945Z,4.80
2019-05-13T02:07:37.083Z,4.80
2019-05-13T02:10:09.203Z,4.70
2019-05-13T02:12:40.371Z,4.60
2019-05-13T02:15:11.002Z,4.50
2019-05-13T02:17:41.111Z,4.30
2019-05-13T02:20:11.179Z,4.30
2019-05-13T02:22:41.255Z,4.30
2019-05-13T02:25:13.581Z,4.30
2019-05-13T02:27:43.995Z,4.20
2019-05-13T02:30:16.094Z,4.20
2019-05-13T02:32:46.126Z,4.10
2019-05-13T02:35:15.964Z,4.00
2019-05-13T02:37:45.807Z,4.00
2019-05-13T02:40:16.070Z,4.00
2019-05-13T02:42:46.236Z,3.90
2019-05-13T02:45:16.460Z,3.90
2019-05-13T02:47:46.282Z,3.90
2019-05-13T02:50:16.569Z,4.00
2019-05-13T02:52:46.725Z,3.90
2019-05-13T02:55:16.966Z,3.90
2019-05-13T02:57:47.246Z,3.80
2019-05-13T03:00:17.254Z,3.80
2019-05-13T03:02:47.362Z,3.80
2019-05-13T03:05:17.633Z,3.80
2019-05-13T03:07:48.909Z,3.80
2019-05-13T03:10:22.183Z,3.80
2019-05-13T03:12:53.420Z,3.80
2019-05-13T03:15:23.184Z,3.70
2019-05-13T03:17:55.196Z,3.70
2019-05-13T03:20:25.136Z,3.60
2019-05-13T03:22:55.431Z,3.50
2019-05-13T03:25:44.762Z,3.50
2019-05-13T03:31:19.193Z,3.60
2019-05-13T03:33:55.540Z,3.60
2019-05-13T03:36:26.334Z,3.50
2019-05-13T03:42:22.299Z,3.40
2019-05-13T03:44:56.767Z,3.40
2019-05-13T03:47:33.674Z,3.30
2019-05-13T03:50:04.057Z,3.30
2019-05-13T03:52:34.625Z,3.20
2019-05-13T03:55:06.661Z,3.20
2019-05-13T03:57:37.056Z,3.20
2019-05-13T04:00:08.131Z,3.20
2019-05-13T04:02:38.413Z,3.20
2019-05-13T04:05:08.705Z,3.10
2019-05-13T04:07:38.806Z,3.10
2019-05-13T04:10:09.330Z,3.10
2019-05-13T04:12:42.379Z,3.20
2019-05-13T04:15:12.973Z,3.10
2019-05-13T04:17:43.166Z,3.20
2019-05-13T04:20:13.622Z,3.20
2019-05-13T04:22:43.599Z,3.20
2019-05-13T04:25:13.989Z,3.20
2019-05-13T04:27:43.933Z,3.30
2019-05-13T04:30:14.395Z,3.30
2019-05-13T04:32:44.594Z,3.40
2019-05-13T04:35:14.822Z,3.40
2019-05-13T04:37:45.054Z,3.50
2019-05-13T04:40:15.401Z,3.50
2019-05-13T04:42:45.706Z,3.60
2019-05-13T04:45:15.683Z,3.60
2019-05-13T04:47:45.992Z,3.70
2019-05-13T04:50:16.263Z,3.80
2019-05-13T04:52:46.168Z,3.90
2019-05-13T04:55:16.365Z,4.00
2019-05-13T04:57:46.598Z,4.00
2019-05-13T05:00:22.533Z,4.00
2019-05-13T05:02:57.439Z,4.10
2019-05-13T05:06:03.230Z,4.10
2019-05-13T05:08:57.589Z,4.20
2019-05-13T05:11:48.487Z,4.30
2019-05-13T05:14:44.151Z,4.30
2019-05-13T05:17:37.497Z,4.40
2019-05-13T05:20:12.949Z,4.40
2019-05-13T05:23:01.976Z,4.50
2019-05-13T05:25:38.132Z,4.50
2019-05-13T05:28:27.595Z,4.60
2019-05-13T05:34:12.047Z,4.70
2019-05-13T05:36:56.894Z,4.80
2019-05-13T05:39:27.799Z,4.80
2019-05-13T05:41:59.180Z,4.90
2019-05-13T05:44:32.547Z,5.00
2019-05-13T05:47:04.796Z,5.00
2019-05-13T05:49:36.502Z,5.10
2019-05-13T05:52:07.637Z,5.10
2019-05-13T05:54:42.042Z,5.20
2019-05-13T05:57:12.166Z,5.40
2019-05-13T05:59:43.821Z,5.50
2019-05-13T06:02:13.940Z,5.60
2019-05-13T06:04:46.602Z,5.80
2019-05-13T06:07:16.979Z,5.90
2019-05-13T06:09:47.140Z,6.10
2019-05-13T06:12:18.353Z,6.20
2019-05-13T06:14:48.700Z,6.30
2019-05-13T06:17:18.797Z,6.50
2019-05-13T06:19:51.120Z,6.50
2019-05-13T06:22:21.677Z,6.70
2019-05-13T06:24:52.239Z,6.80
2019-05-13T06:27:22.657Z,6.90
2019-05-13T06:29:53.094Z,7.10
2019-05-13T06:32:26.253Z,7.20
2019-05-13T06:34:55.834Z,7.30
2019-05-13T06:37:26.131Z,7.40
2019-05-13T06:39:57.075Z,7.60
2019-05-13T06:42:27.205Z,7.70
2019-05-13T06:44:57.368Z,7.80
2019-05-13T06:47:27.323Z,7.90
2019-05-13T06:49:57.557Z,8.00
2019-05-13T06:52:27.529Z,8.20
2019-05-13T06:54:57.722Z,8.30
2019-05-13T06:57:27.832Z,8.40
2019-05-13T06:59:58.045Z,8.60
2019-05-13T07:02:28.296Z,8.70
2019-05-13T07:04:58.142Z,8.80
2019-05-13T07:07:28.409Z,9.00
2019-05-13T07:09:58.612Z,9.10
2019-05-13T07:12:31.235Z,9.10
2019-05-13T07:15:02.542Z,9.30
2019-05-13T07:17:33.879Z,9.40
2019-05-13T07:20:05.371Z,9.60
2019-05-13T07:22:55.340Z,9.60
2019-05-13T07:25:29.133Z,9.70
2019-05-13T07:28:21.687Z,9.80
2019-05-13T07:30:51.616Z,9.90
2019-05-13T07:33:42.635Z,10.10
2019-05-13T07:36:18.533Z,10.30
2019-05-13T07:39:09.002Z,10.50
2019-05-13T07:41:43.345Z,10.70
2019-05-13T07:47:16.017Z,11.10
2019-05-13T07:49:45.913Z,11.30
2019-05-13T07:52:16.100Z,11.50
2019-05-13T07:54:46.386Z,11.70
2019-05-13T07:57:16.621Z,11.70
2019-05-13T07:59:46.561Z,11.80
2019-05-13T08:02:16.560Z,12.00
2019-05-13T08:04:49.318Z,12.20
2019-05-13T08:07:18.356Z,12.30
2019-05-13T08:09:48.472Z,12.30
2019-05-13T08:12:18.573Z,12.40
2019-05-13T08:14:48.903Z,12.60
2019-05-13T08:17:19.081Z,12.80
2019-05-13T08:19:51.853Z,12.90
2019-05-13T08:22:22.025Z,13.00
2019-05-13T08:24:54.467Z,13.20
2019-05-13T08:27:30.303Z,13.40
2019-05-13T08:29:56.220Z,13.50
2019-05-13T08:32:26.342Z,13.60
2019-05-13T08:35:01.239Z,13.80
2019-05-13T08:37:28.384Z,14.00
2019-05-13T08:40:01.514Z,14.20
2019-05-13T08:42:32.301Z,14.40
2019-05-13T08:45:02.627Z,14.50
2019-05-13T08:47:32.682Z,14.60
2019-05-13T08:50:04.354Z,14.70
2019-05-13T08:52:35.320Z,15.00
2019-05-13T08:55:07.095Z,15.20
2019-05-13T08:57:37.291Z,15.30
2019-05-13T09:00:08.106Z,15.50
2019-05-13T09:02:38.362Z,15.70
2019-05-13T09:05:09.061Z,15.90
2019-05-13T09:07:41.276Z,15.90
2019-05-13T09:10:12.460Z,16.00
2019-05-13T09:12:43.395Z,16.00
2019-05-13T09:15:13.837Z,16.10
2019-05-13T09:17:43.834Z,16.00
2019-05-13T09:20:14.080Z,16.00
2019-05-13T09:22:44.192Z,16.10
2019-05-13T09:25:14.464Z,16.20
2019-05-13T09:27:44.772Z,16.30
2019-05-13T09:30:15.033Z,16.40
2019-05-13T09:32:47.066Z,16.60
2019-05-13T09:35:16.979Z,16.80
2019-05-13T09:37:47.150Z,17.10
2019-05-13T09:40:17.066Z,17.20
2019-05-13T09:42:52.055Z,17.30
2019-05-13T09:45:21.595Z,17.50
2019-05-13T09:47:52.517Z,17.60
2019-05-13T09:50:29.381Z,17.70
2019-05-13T09:52:54.922Z,17.80
2019-05-13T09:57:57.091Z,18.00
2019-05-13T10:00:26.987Z,18.20
2019-05-13T10:02:57.150Z,18.00
2019-05-13T10:05:27.371Z,17.80
2019-05-13T10:07:58.717Z,17.90
2019-05-13T10:10:28.985Z,18.10
2019-05-13T10:13:09.114Z,18.30
2019-05-13T10:15:32.564Z,18.40
2019-05-13T10:18:02.707Z,18.20
2019-05-13T10:20:57.978Z,18.10
2019-05-13T10:23:25.781Z,18.00
2019-05-13T10:25:59.015Z,18.00
2019-05-13T10:28:31.785Z,18.20
2019-05-13T10:31:01.969Z,18.20
2019-05-13T10:33:32.360Z,18.40
2019-05-13T10:36:03.761Z,18.50
2019-05-13T10:38:34.354Z,18.50
2019-05-13T10:41:04.548Z,18.60
2019-05-13T10:43:40.032Z,18.90
2019-05-13T10:46:06.606Z,19.20
2019-05-13T10:48:36.584Z,19.40
2019-05-13T10:51:06.835Z,19.50
2019-05-13T10:53:36.901Z,19.80
2019-05-13T10:56:07.198Z,20.00
2019-05-13T10:58:37.548Z,20.10
2019-05-13T11:01:07.905Z,20.00
2019-05-13T11:03:37.919Z,19.90
2019-05-13T11:06:08.219Z,19.70
2019-05-13T11:08:38.102Z,19.70
2019-05-13T11:11:08.402Z,19.90
2019-05-13T11:13:52.153Z,19.90
2019-05-13T11:16:12.218Z,19.60
2019-05-13T11:18:42.039Z,19.20
2019-05-13T11:21:12.984Z,19.30
2019-05-13T11:23:43.397Z,19.60
2019-05-13T11:26:13.611Z,19.30
2019-05-13T11:28:43.986Z,19.50
2019-05-13T11:31:14.345Z,19.80
2019-05-13T11:33:44.260Z,20.10
2019-05-13T11:36:18.881Z,20.20
2019-05-13T11:38:47.431Z,20.40
2019-05-13T11:41:22.871Z,20.60
2019-05-13T11:44:11.906Z,20.20
2019-05-13T11:46:25.078Z,19.60
2019-05-13T11:48:55.085Z,19.60
2019-05-13T11:51:25.015Z,20.00
2019-05-13T11:53:56.119Z,20.20
2019-05-13T11:56:26.549Z,20.30
2019-05-13T11:58:56.723Z,20.40
2019-05-13T12:01:26.982Z,20.70
2019-05-13T12:03:57.166Z,21.00
2019-05-13T12:06:27.363Z,21.00
2019-05-13T12:08:57.513Z,21.00
2019-05-13T12:11:27.766Z,21.00
2019-05-13T12:13:57.740Z,21.20
2019-05-13T12:16:28.054Z,21.60
2019-05-13T12:18:58.335Z,21.40
2019-05-13T12:21:29.225Z,21.30
2019-05-13T12:24:06.647Z,21.10
2019-05-13T12:26:33.277Z,21.10
2019-05-13T12:29:03.047Z,21.10
2019-05-13T12:31:33.790Z,21.10
2019-05-13T12:34:04.142Z,21.00
2019-05-13T12:36:34.733Z,21.20
2019-05-13T12:39:06.641Z,21.40
2019-05-13T12:41:36.917Z,21.70
2019-05-13T12:44:07.234Z,21.80
2019-05-13T12:46:37.181Z,21.60
2019-05-13T12:49:07.523Z,21.50
2019-05-13T12:51:37.863Z,21.60
2019-05-13T12:54:08.167Z,21.70
2019-05-13T12:56:38.503Z,21.80
2019-05-13T12:59:12.869Z,21.80
2019-05-13T13:01:40.490Z,22.10
2019-05-13T13:04:12.329Z,22.20
2019-05-13T13:06:45.356Z,21.90
2019-05-13T13:09:14.396Z,22.00
2019-05-13T13:11:44.284Z,22.10
2019-05-13T13:14:15.596Z,22.30
2019-05-13T13:16:45.855Z,22.50
2019-05-13T13:19:15.793Z,22.40
2019-05-13T13:21:46.059Z,22.20
2019-05-13T13:24:16.028Z,22.20
2019-05-13T13:26:45.940Z,22.10
2019-05-13T13:29:16.247Z,22.20
2019-05-13T13:31:46.424Z,22.30
2019-05-13T13:34:18.295Z,22.10
2019-05-13T13:36:48.532Z,21.90
2019-05-13T13:39:24.892Z,22.00
2019-05-13T13:41:53.515Z,22.10
2019-05-13T13:44:24.620Z,22.50
2019-05-13T13:46:55.193Z,22.40
2019-05-13T13:49:25.297Z,22.50
2019-05-13T13:51:55.489Z,22.70
2019-05-13T13:54:25.700Z,22.90
2019-05-13T13:56:56.253Z,22.40
2019-05-13T13:59:26.563Z,22.30
2019-05-13T14:01:57.735Z,22.20
2019-05-13T14:04:27.983Z,22.10
2019-05-13T14:06:25.462Z,17.90
2019-05-13T14:09:29.590Z,22.00
2019-05-13T14:12:01.854Z,22.10
2019-05-13T14:14:32.035Z,22.40
2019-05-13T14:17:02.529Z,22.50
2019-05-13T14:19:32.830Z,22.00
2019-05-13T14:22:02.798Z,21.90
2019-05-13T14:24:33.245Z,22.00
2019-05-13T14:27:03.550Z,22.20
2019-05-13T14:29:40.701Z,22.30
2019-05-13T14:32:05.990Z,22.30
2019-05-13T14:34:35.948Z,22.40
2019-05-13T14:37:06.352Z,22.50
2019-05-13T14:39:36.586Z,22.20
2019-05-13T14:42:06.557Z,21.90
2019-05-13T14:44:36.804Z,21.70
2019-05-13T14:47:07.188Z,21.70
2019-05-13T14:49:37.061Z,21.70
2019-05-13T14:52:07.342Z,21.70
2019-05-13T14:54:37.749Z,21.40
2019-05-13T14:57:11.942Z,21.10
2019-05-13T14:59:41.418Z,21.20
2019-05-13T15:02:12.086Z,21.20
2019-05-13T15:04:42.602Z,21.30
2019-05-13T15:07:13.263Z,21.30
2019-05-13T15:09:43.475Z,21.10
2019-05-13T15:12:13.881Z,21.20
2019-05-13T15:14:43.968Z,21.20
2019-05-13T15:17:14.125Z,21.10
2019-05-13T15:19:44.775Z,21.00
2019-05-13T15:22:16.047Z,20.90
2019-05-13T15:24:46.436Z,20.60
2019-05-13T15:27:16.776Z,20.40
2019-05-13T15:29:47.943Z,20.20
2019-05-13T15:32:17.936Z,20.20
2019-05-13T15:34:48.362Z,20.20
2019-05-13T15:37:18.580Z,20.00
2019-05-13T15:39:48.795Z,19.90
2019-05-13T15:42:20.826Z,19.80
2019-05-13T15:44:52.403Z,19.60
2019-05-13T15:47:26.360Z,19.50
2019-05-13T15:49:53.885Z,19.40
2019-05-13T15:52:23.750Z,19.40
2019-05-13T15:54:53.863Z,19.40
2019-05-13T15:57:23.722Z,19.30
2019-05-13T15:59:53.714Z,19.20
2019-05-13T16:02:24.120Z,18.90
2019-05-13T16:05:00.959Z,18.80
2019-05-13T16:07:26.067Z,18.70
2019-05-13T16:09:56.404Z,18.60
2019-05-13T16:12:26.711Z,18.60
2019-05-13T16:14:57.106Z,18.50
2019-05-13T16:17:40.615Z,18.40
2019-05-13T16:20:01.163Z,18.30
2019-05-13T16:22:31.521Z,18.30
2019-05-13T16:25:01.685Z,18.20
2019-05-13T16:27:32.030Z,18.20
2019-05-13T16:30:02.584Z,18.10
2019-05-13T16:32:34.798Z,17.90
2019-05-13T16:35:07.129Z,17.90
2019-05-13T16:37:37.435Z,17.80
2019-05-13T16:40:08.268Z,17.70
2019-05-13T16:42:38.681Z,17.60
2019-05-13T16:45:09.218Z,17.60
2019-05-13T16:47:55.833Z,17.50
2019-05-13T16:50:12.636Z,17.40
2019-05-13T16:52:43.032Z,17.30
2019-05-13T16:55:13.476Z,17.20
2019-05-13T16:57:43.487Z,17.10
2019-05-13T17:00:14.158Z,17.10
2019-05-13T17:02:44.314Z,17.00
2019-05-13T17:05:14.833Z,16.90
2019-05-13T17:07:45.284Z,16.90
2019-05-13T17:10:15.916Z,16.80
2019-05-13T17:12:46.374Z,16.80
2019-05-13T17:15:17.814Z,16.70
2019-05-13T17:17:48.036Z,16.70
2019-05-13T17:20:18.552Z,16.60
2019-05-13T17:22:51.140Z,16.60
2019-05-13T17:25:20.541Z,16.60
2019-05-13T17:27:51.456Z,16.50
2019-05-13T17:30:23.267Z,16.50
2019-05-13T17:32:53.594Z,16.50
2019-05-13T17:35:23.904Z,16.40
2019-05-13T17:37:54.212Z,16.30
2019-05-13T17:40:24.158Z,16.30
2019-05-13T17:42:54.300Z,16.30
2019-05-13T17:45:24.550Z,16.20
2019-05-13T17:47:54.767Z,16.20
2019-05-13T17:50:25.058Z,16.10
2019-05-13T17:52:55.262Z,16.00
2019-05-13T17:55:25.469Z,16.00
2019-05-13T17:57:55.796Z,15.90
2019-05-13T18:00:26.171Z,15.90
2019-05-13T18:02:56.431Z,15.80
2019-05-13T18:05:26.328Z,15.80
2019-05-13T18:07:56.645Z,15.70
2019-05-13T18:10:26.794Z,15.70
2019-05-13T18:12:57.179Z,15.60
2019-05-13T18:15:27.216Z,15.60
2019-05-13T18:17:57.816Z,15.50
2019-05-13T18:20:27.724Z,15.50
2019-05-13T18:22:57.940Z,15.40
2019-05-13T18:25:28.418Z,15.40
2019-05-13T18:27:58.767Z,15.30
2019-05-13T18:30:29.002Z,15.30
2019-05-13T18:33:01.861Z,15.20
2019-05-13T18:35:32.082Z,15.10
2019-05-13T18:38:02.553Z,15.00
2019-05-13T18:40:33.072Z,14.90
2019-05-13T18:43:03.515Z,14.90
2019-05-13T18:45:33.875Z,14.80
2019-05-13T18:48:04.362Z,14.80
2019-05-13T18:50:34.664Z,14.70
2019-05-13T18:53:04.748Z,14.60
2019-05-13T18:55:35.047Z,14.60
2019-05-13T18:58:05.468Z,14.50
2019-05-13T19:00:35.806Z,14.50
2019-05-13T19:03:06.118Z,14.40
2019-05-13T19:05:36.140Z,14.40
2019-05-13T19:08:06.302Z,14.30
2019-05-13T19:10:36.733Z,14.20
2019-05-13T19:13:06.787Z,14.10
2019-05-13T19:15:37.224Z,14.00
2019-05-13T19:18:07.394Z,14.00
2019-05-13T19:20:37.656Z,13.90
2019-05-13T19:23:07.846Z,13.90
2019-05-13T19:25:42.065Z,13.90
2019-05-13T19:28:11.818Z,13.80
2019-05-13T19:30:42.019Z,13.70
2019-05-13T19:33:13.034Z,13.70
2019-05-13T19:35:43.420Z,13.50
2019-05-13T19:38:13.482Z,13.50
2019-05-13T19:40:43.521Z,13.50
2019-05-13T19:43:13.735Z,13.40
2019-05-13T19:45:44.105Z,13.30
2019-05-13T19:48:15.482Z,13.20
2019-05-13T19:50:45.774Z,13.20
2019-05-13T19:53:15.962Z,13.00
2019-05-13T19:55:46.282Z,13.00
2019-05-13T19:58:16.614Z,12.80
2019-05-13T20:00:46.874Z,12.50
2019-05-13T20:03:17.284Z,12.30
2019-05-13T20:05:47.444Z,12.10
2019-05-13T20:08:17.738Z,11.90
2019-05-13T20:10:47.971Z,11.80
2019-05-13T20:13:18.309Z,11.60
2019-05-13T20:15:48.597Z,11.40
2019-05-13T20:18:18.621Z,11.20
2019-05-13T20:20:48.800Z,11.10
2019-05-13T20:23:21.173Z,11.00
2019-05-13T20:25:52.434Z,10.90
2019-05-13T20:28:23.738Z,10.70
2019-05-13T20:30:54.047Z,10.50
2019-05-13T20:33:24.309Z,10.40
2019-05-13T20:35:54.223Z,10.30
2019-05-13T20:38:24.448Z,10.20
2019-05-13T20:40:54.826Z,10.20
2019-05-13T20:43:25.795Z,10.20
2019-05-13T20:45:55.896Z,10.10
2019-05-13T20:48:26.212Z,10.00
2019-05-13T20:50:56.315Z,10.10
2019-05-13T20:53:26.351Z,10.10
2019-05-13T20:55:56.531Z,10.10
2019-05-13T20:58:26.715Z,9.90
2019-05-13T21:00:57.008Z,9.70
2019-05-13T21:03:28.047Z,9.60
2019-05-13T21:05:58.053Z,9.50
2019-05-13T21:08:28.391Z,9.50
2019-05-13T21:10:58.240Z,9.40
2019-05-13T21:13:28.492Z,9.30
2019-05-13T21:15:58.659Z,9.20
2019-05-13T21:18:28.552Z,9.20
2019-05-13T21:20:58.793Z,9.10
2019-05-13T21:23:31.062Z,9.10
2019-05-13T21:26:01.638Z,9.00
2019-05-13T21:28:32.068Z,9.00
2019-05-13T21:31:02.378Z,8.80
2019-05-13T21:33:51.926Z,8.70
2019-05-13T21:36:22.193Z,8.60
2019-05-13T21:38:52.416Z,8.60
2019-05-13T21:41:22.633Z,8.60
2019-05-13T21:43:53.483Z,8.50
2019-05-13T21:46:24.662Z,8.30
2019-05-13T21:48:55.482Z,8.20
2019-05-13T21:51:25.408Z,8.10
2019-05-13T21:53:55.394Z,8.00
2019-05-13T21:56:25.569Z,7.90
2019-05-13T21:58:55.694Z,7.90
2019-05-13T22:01:26.076Z,7.90
2019-05-13T22:03:56.268Z,7.90
2019-05-13T22:06:26.382Z,7.70
2019-05-13T22:08:56.274Z,7.60
2019-05-13T22:11:26.186Z,7.60
2019-05-13T22:13:57.208Z,7.50
2019-05-13T22:16:27.096Z,7.50
2019-05-13T22:19:01.391Z,7.50
2019-05-13T22:21:31.577Z,7.50
2019-05-13T22:24:02.261Z,7.30
2019-05-13T22:26:32.347Z,7.20
2019-05-13T22:29:02.871Z,7.20
2019-05-13T22:31:33.156Z,7.10
2019-05-13T22:34:03.121Z,7.10
2019-05-13T22:36:33.322Z,7.10
2019-05-13T22:39:05.051Z,7.10
2019-05-13T22:41:35.550Z,7.20
2019-05-13T22:44:05.479Z,7.20
2019-05-13T22:46:35.665Z,7.20
2019-05-13T22:49:05.831Z,7.10
2019-05-13T22:51:36.991Z,7.10
2019-05-13T22:54:07.204Z,7.10
2019-05-13T22:56:37.464Z,7.10
2019-05-13T22:59:07.272Z,7.00
2019-05-13T23:01:37.479Z,7.00
2019-05-13T23:04:07.710Z,6.90
2019-05-13T23:06:41.425Z,6.90
2019-05-13T23:09:12.536Z,6.80
2019-05-13T23:11:42.761Z,6.80
2019-05-13T23:14:13.604Z,6.70
2019-05-13T23:16:43.894Z,6.60
2019-05-13T23:19:14.118Z,6.40
2019-05-13T23:21:44.266Z,6.30
2019-05-13T23:24:14.364Z,6.20
2019-05-13T23:26:44.622Z,6.20
2019-05-13T23:29:14.783Z,6.20
2019-05-13T23:31:44.957Z,6.20
2019-05-13T23:34:15.227Z,6.10
2019-05-13T23:36:45.153Z,6.10
2019-05-13T23:39:15.322Z,6.10
2019-05-13T23:41:45.415Z,6.00
2019-05-13T23:44:24.962Z,6.00
2019-05-13T23:46:47.256Z,6.00
2019-05-13T23:49:17.672Z,5.90
2019-05-13T23:51:48.706Z,5.90
2019-05-13T23:54:21.143Z,5.90
2019-05-13T23:56:50.674Z,5.90
2019-05-13T23:59:21.872Z,5.80
